createdAt,value
2019-03-28T00:04:10.818Z,12.24
2019-03-28T00:09:14.367Z,12.23
2019-03-28T00:14:17.916Z,12.19
2019-03-28T00:19:21.479Z,12.19
2019-03-28T00:24:28.811Z,12.14
2019-03-28T00:29:32.350Z,12.13
2019-03-28T00:34:35.923Z,12.09
2019-03-28T00:39:40.176Z,12.04
2019-03-28T00:44:43.816Z,12.04
2019-03-28T00:49:47.381Z,12.08
2019-03-28T00:54:50.961Z,12.07
2019-03-28T00:59:54.526Z,12.05
2019-03-28T01:04:58.090Z,12.09
2019-03-28T01:10:01.641Z,12.06
2019-03-28T01:15:06.653Z,12.08
2019-03-28T01:20:10.371Z,12.10
2019-03-28T01:25:13.906Z,12.10
2019-03-28T01:30:17.436Z,12.03
2019-03-28T01:35:21.010Z,12.01
2019-03-28T01:40:24.535Z,12.02
2019-03-28T01:45:28.052Z,12.01
2019-03-28T01:50:31.579Z,12.04
2019-03-28T01:55:35.133Z,12.08
2019-03-28T02:00:38.673Z,12.09
2019-03-28T02:05:42.226Z,12.12
2019-03-28T02:10:45.748Z,12.11
2019-03-28T02:15:49.447Z,12.11
2019-03-28T02:20:53.015Z,12.10
2019-03-28T02:25:56.554Z,12.12
2019-03-28T02:31:00.115Z,12.08
2019-03-28T02:36:03.680Z,12.09
2019-03-28T02:41:07.205Z,12.05
2019-03-28T02:46:10.745Z,12.02
2019-03-28T02:51:14.418Z,11.99
2019-03-28T02:56:17.978Z,11.96
2019-03-28T03:01:21.574Z,11.92
2019-03-28T03:06:25.094Z,11.87
2019-03-28T03:11:28.669Z,11.82
2019-03-28T03:16:32.280Z,11.77
2019-03-28T03:21:36.044Z,11.74
2019-03-28T03:26:40.720Z,11.75
2019-03-28T03:31:44.259Z,11.69
2019-03-28T03:36:47.803Z,11.62
2019-03-28T03:41:51.324Z,11.56
2019-03-28T03:46:54.894Z,11.52
2019-03-28T03:51:58.425Z,11.45
2019-03-28T03:57:01.968Z,11.43
2019-03-28T04:02:05.514Z,11.42
2019-03-28T04:07:09.182Z,11.38
2019-03-28T04:12:12.801Z,11.41
2019-03-28T04:17:16.377Z,11.40
2019-03-28T04:22:19.912Z,11.39
2019-03-28T04:27:23.439Z,11.38
2019-03-28T04:32:26.964Z,11.37
2019-03-28T04:37:30.472Z,11.29
2019-03-28T04:42:35.468Z,11.23
2019-03-28T04:47:39.746Z,11.18
2019-03-28T04:52:46.083Z,11.16
2019-03-28T04:57:49.636Z,11.16
2019-03-28T05:02:54.705Z,11.13
2019-03-28T05:07:59.830Z,11.16
2019-03-28T05:13:03.433Z,11.22
2019-03-28T05:18:11.565Z,11.21
2019-03-28T05:23:21.668Z,11.24
2019-03-28T05:28:27.473Z,11.28
2019-03-28T05:33:33.847Z,11.29
2019-03-28T05:38:37.703Z,11.33
2019-03-28T05:43:45.373Z,11.37
2019-03-28T05:48:48.420Z,11.36
2019-03-28T05:53:51.938Z,11.35
2019-03-28T05:58:55.484Z,11.43
2019-03-28T06:03:59.007Z,11.57
2019-03-28T06:09:04.218Z,11.66
2019-03-28T06:14:08.326Z,11.80
2019-03-28T06:19:13.139Z,11.90
2019-03-28T06:24:16.814Z,11.93
2019-03-28T06:29:24.052Z,12.00
2019-03-28T06:34:27.617Z,12.07
2019-03-28T06:39:31.495Z,12.19
2019-03-28T06:44:35.537Z,12.32
2019-03-28T06:49:39.077Z,12.35
2019-03-28T06:54:42.658Z,12.34
2019-03-28T06:59:46.195Z,12.37
2019-03-28T07:04:49.722Z,12.42
2019-03-28T07:09:53.299Z,12.56
2019-03-28T08:16:54.928Z,13.27
2019-03-28T08:21:58.425Z,13.55
2019-03-28T08:27:01.936Z,13.80
2019-03-28T08:32:09.190Z,13.98
2019-03-28T08:37:13.508Z,14.17
2019-03-28T08:42:17.032Z,14.27
2019-03-28T08:47:20.650Z,14.40
2019-03-28T08:52:24.183Z,14.55
2019-03-28T08:57:27.734Z,14.80
2019-03-28T09:02:31.250Z,14.85
2019-03-28T09:07:34.810Z,15.02
2019-03-28T09:12:39.770Z,15.22
2019-03-28T09:17:44.500Z,15.39
2019-03-28T09:22:48.573Z,15.49
2019-03-28T09:27:53.257Z,15.64
2019-03-28T09:32:58.601Z,15.91
2019-03-28T09:38:03.530Z,15.97
2019-03-28T09:43:08.478Z,16.03
2019-03-28T09:48:16.249Z,15.93
2019-03-28T09:53:21.458Z,16.06
2019-03-28T09:58:26.140Z,16.26
2019-03-28T10:03:31.875Z,16.08
2019-03-28T10:08:36.465Z,16.17
2019-03-28T10:13:41.647Z,16.20
2019-03-28T10:18:45.433Z,16.39
2019-03-28T10:23:51.539Z,16.32
2019-03-28T10:28:56.529Z,16.36
2019-03-28T10:34:01.293Z,16.61
2019-03-28T10:39:08.910Z,16.52
2019-03-28T10:44:13.412Z,16.64
2019-03-28T10:49:17.807Z,16.55
2019-03-28T10:54:25.598Z,16.80
2019-03-28T10:59:31.814Z,17.35
2019-03-28T11:04:37.615Z,17.91
2019-03-28T11:09:44.271Z,17.59
2019-03-28T11:14:50.282Z,17.32
2019-03-28T11:19:57.404Z,17.52
2019-03-28T11:25:02.480Z,17.37
2019-03-28T11:30:10.013Z,17.40
2019-03-28T11:35:15.050Z,17.22
2019-03-28T11:40:20.089Z,16.95
2019-03-28T11:45:26.744Z,17.35
2019-03-28T11:50:29.107Z,17.82
2019-03-28T11:55:32.673Z,18.10
2019-03-28T12:00:36.192Z,18.16
2019-03-28T12:05:39.803Z,18.12
2019-03-28T12:10:43.319Z,18.30
2019-03-28T12:15:46.824Z,18.12
2019-03-28T12:20:50.338Z,17.76
2019-03-28T12:25:53.873Z,17.88
2019-03-28T12:30:57.481Z,17.85
2019-03-28T12:36:01.171Z,17.97
2019-03-28T12:41:04.851Z,18.07
2019-03-28T12:46:08.372Z,18.27
2019-03-28T12:51:12.365Z,18.35
2019-03-28T12:56:15.905Z,18.38
2019-03-28T13:01:19.458Z,18.60
2019-03-28T13:06:22.966Z,18.16
2019-03-28T13:11:26.499Z,17.82
2019-03-28T13:16:30.210Z,17.82
2019-03-28T13:21:34.651Z,17.65
2019-03-28T13:26:38.148Z,17.72
2019-03-28T13:31:41.669Z,17.72
2019-03-28T13:36:45.195Z,17.59
2019-03-28T13:41:48.711Z,17.37
2019-03-28T13:46:52.228Z,17.50
2019-03-28T13:51:55.788Z,17.40
2019-03-28T13:56:59.398Z,17.38
2019-03-28T14:02:02.932Z,17.31
2019-03-28T14:07:06.436Z,17.19
2019-03-28T14:12:09.986Z,17.09
2019-03-28T14:17:13.555Z,17.14
2019-03-28T14:22:18.289Z,17.18
2019-03-28T14:27:22.020Z,17.33
2019-03-28T14:32:25.552Z,17.48
2019-03-28T14:37:29.057Z,17.59
2019-03-28T14:42:32.580Z,17.64
2019-03-28T14:47:36.101Z,17.77
2019-03-28T14:52:39.623Z,17.98
2019-03-28T14:57:43.172Z,18.11
2019-03-28T15:02:46.732Z,18.13
2019-03-28T15:07:50.345Z,17.93
2019-03-28T15:12:53.872Z,17.91
2019-03-28T15:17:57.413Z,17.88
2019-03-28T15:23:00.924Z,17.92
2019-03-28T15:28:04.452Z,18.00
2019-03-28T15:33:08.028Z,17.71
2019-03-28T15:38:11.557Z,17.30
2019-03-28T15:43:16.049Z,17.31
2019-03-28T15:48:20.211Z,17.32
2019-03-28T15:53:24.100Z,17.37
2019-03-28T15:58:27.651Z,17.45
2019-03-28T16:03:31.167Z,17.58
2019-03-28T16:08:34.689Z,17.31
2019-03-28T16:13:38.291Z,17.27
2019-03-28T16:18:41.831Z,17.30
2019-03-28T16:23:45.338Z,17.22
2019-03-28T16:28:48.859Z,17.26
2019-03-28T16:34:05.819Z,17.12
2019-03-28T16:38:57.846Z,17.03
2019-03-28T16:44:01.384Z,17.01
2019-03-28T16:49:04.937Z,17.00
2019-03-28T16:54:08.460Z,16.94
2019-03-28T16:59:12.002Z,16.86
2019-03-28T17:04:20.942Z,16.73
2019-03-28T17:09:22.202Z,16.70
2019-03-28T17:14:26.316Z,16.61
2019-03-28T17:19:30.029Z,16.57
2019-03-28T17:24:33.556Z,16.48
2019-03-28T17:29:37.090Z,16.35
2019-03-28T17:34:40.647Z,16.30
2019-03-28T17:39:44.160Z,16.24
2019-03-28T17:44:47.673Z,16.21
2019-03-28T17:49:51.808Z,16.16
2019-03-28T17:54:55.557Z,16.09
2019-03-28T17:59:59.145Z,16.05
2019-03-28T18:05:09.196Z,15.98
2019-03-28T18:10:08.439Z,15.89
2019-03-28T18:15:12.318Z,15.76
2019-03-28T18:20:15.888Z,15.73
2019-03-28T18:25:19.453Z,15.58
2019-03-28T18:30:23.581Z,15.49
2019-03-28T18:35:27.098Z,15.46
2019-03-28T18:40:31.471Z,15.45
2019-03-28T18:45:35.126Z,15.38
2019-03-28T18:50:41.094Z,15.30
2019-03-28T18:55:44.126Z,15.30
2019-03-28T19:00:48.294Z,15.34
2019-03-28T19:05:52.041Z,15.36
2019-03-28T19:10:55.591Z,15.34
2019-03-28T19:15:59.138Z,15.33
2019-03-28T19:21:02.714Z,15.29
2019-03-28T19:26:06.230Z,15.07
2019-03-28T19:31:09.771Z,14.81
2019-03-28T19:36:34.945Z,14.81
2019-03-28T19:41:38.455Z,14.87
2019-03-28T19:46:41.956Z,14.89
2019-03-28T19:51:47.695Z,14.92
2019-03-28T19:56:50.918Z,14.94
2019-03-28T20:02:00.182Z,14.93
2019-03-28T20:07:03.723Z,14.96
2019-03-28T20:12:07.293Z,14.89
2019-03-28T20:17:10.815Z,14.85
2019-03-28T20:22:14.335Z,14.80
2019-03-28T20:27:17.884Z,14.80
2019-03-28T20:32:21.505Z,14.81
2019-03-28T20:37:25.321Z,14.78
2019-03-28T20:42:28.823Z,14.72
2019-03-28T20:47:32.335Z,14.75
2019-03-28T20:52:35.862Z,14.73
2019-03-28T20:57:40.544Z,14.71
2019-03-28T21:02:44.156Z,14.69
2019-03-28T21:07:47.667Z,14.63
2019-03-28T21:12:51.208Z,14.54
2019-03-28T21:17:54.714Z,14.50
2019-03-28T21:22:58.249Z,14.44
2019-03-28T21:28:01.773Z,14.46
2019-03-28T21:33:05.293Z,14.48
2019-03-28T21:38:08.816Z,14.46
2019-03-28T21:43:12.355Z,14.50
2019-03-28T21:48:16.909Z,14.42
2019-03-28T21:53:20.707Z,14.48
2019-03-28T21:58:24.241Z,14.48
2019-03-28T22:03:27.759Z,14.49
2019-03-28T22:08:31.346Z,14.52
2019-03-28T22:13:34.883Z,14.47
2019-03-28T22:18:38.403Z,14.39
2019-03-28T22:23:41.942Z,14.35
2019-03-28T22:28:45.459Z,14.22
2019-03-28T22:33:49.110Z,14.19
2019-03-28T22:38:52.606Z,14.23
2019-03-28T22:43:56.161Z,14.19
2019-03-28T22:48:59.689Z,14.00
2019-03-28T22:54:03.205Z,13.98
2019-03-28T22:59:06.784Z,14.06
2019-03-28T23:04:10.301Z,14.05
2019-03-28T23:09:13.825Z,14.08
2019-03-28T23:14:17.331Z,14.10
2019-03-28T23:19:20.839Z,14.09
2019-03-28T23:24:24.356Z,14.06
2019-03-28T23:29:27.883Z,14.07
2019-03-28T23:34:31.420Z,14.05
2019-03-28T23:39:34.963Z,14.00
2019-03-28T23:44:38.702Z,14.00
2019-03-28T23:49:42.217Z,13.96
2019-03-28T23:54:45.758Z,13.93
2019-03-28T23:59:49.280Z,13.91
